KALO/ALO METAR and TAF weather

Enter ICAO airport designator
Station Type Date Time Source
KALO METAR 2021/07/28 03:54 UTC NOAA

KALO 280354Z AUTO 17006KT 10SM CLR 28/23 A2997 RMK AO2 SLP140 T02780228


Station Type Date Time Source
KALO Decoded METAR 2021/07/28 03:54 UTC NOAA

WATERLOO MUNICIPAL AIRPORT, IA, United States (KALO) 42-33N 92-24W 264M
Jul 27, 2021 - 11:54 PM EDT / 2021.07.28 0354 UTC
Wind: from the S (170 degrees) at 7 MPH (6 KT):0
Visibility: 10 mile(s):0
Sky conditions: clear
Temperature: 82.0 F (27.8 C)
Dew Point: 73.0 F (22.8 C)
Relative Humidity: 74%
Pressure (altimeter): 29.97 in. Hg (1014 hPa)
ob: KALO 280354Z AUTO 17006KT 10SM CLR 28/23 A2997 RMK AO2 SLP140 T02780228
cycle: 4

Station Type Date Time Source
KALO TAF 2021/07/27 18:42 UTC NOAA

TAF KALO 271739Z 2718/2818 15012KT P6SM FEW045
FM272000 22009KT P6SM FEW250

Example: see airport list